AIRPORT METAR

METAR FOR LETL
ADDS - METARS form results

(1954 UTC 06 December 2022)
Data provider http://aviationweather.gov/metar/data/
 
METAR text: LETL 061930Z AUTO 33008KT 9999 FEW021 BKN048 09/07 Q1016
Conditions at: LETL (TERUEL , ES) observed 1930 UTC 06 December 2022
Temperature: 9.0°C (48°F)
Dewpoint: 7.0°C (45°F) [RH = 87%]
Pressure (altimeter): 30.00 inches Hg (1016.0 mb)
Winds: from the NNW (330 degrees) at 9 MPH (8 knots; 4.1 m/s)
Visibility: 6 or more miles (10+ km)
Ceiling: 4800 feet AGL
Clouds: few clouds at 2100 feet AGL
broken clouds at 4800 feet AGL
Weather: no significant weather observed at this time

METAR text: LETL 061900Z AUTO 34005KT 9999 SCT032 09/07 Q1016
Conditions at: LETL (TERUEL , ES) observed 1900 UTC 06 December 2022
Temperature: 9.0°C (48°F)
Dewpoint: 7.0°C (45°F) [RH = 87%]
Pressure (altimeter): 30.00 inches Hg (1016.0 mb)
Winds: from the NNW (340 degrees) at 6 MPH (5 knots; 2.6 m/s)
Visibility: 6 or more miles (10+ km)
Ceiling: at least 12,000 feet AGL
Clouds: scattered clouds at 3200 feet AGL
Weather: no significant weather observed at this time

AIRPORT MAP

 RUNWAY INFORMATION

 AIRPORT FREQUENCIES

 AIRPORT NEAR NAVIGATION AIDS



© 2022 - Royal Sky Service, All Right Reserved.